createdAt,value
2022-10-07T00:03:08.961Z,74.00
2022-10-07T00:06:37.616Z,73.40
2022-10-07T00:10:01.341Z,73.40
2022-10-07T00:13:26.107Z,73.50
2022-10-07T00:16:49.516Z,73.50
2022-10-07T00:20:12.910Z,73.60
2022-10-07T00:23:36.991Z,73.40
2022-10-07T00:27:00.499Z,73.40
2022-10-07T00:30:25.221Z,73.20
2022-10-07T00:33:49.819Z,73.30
2022-10-07T00:37:13.182Z,73.40
2022-10-07T00:40:36.598Z,73.50
2022-10-07T00:44:00.765Z,73.60
2022-10-07T00:47:36.221Z,73.70
2022-10-07T00:51:02.806Z,73.50
2022-10-07T00:54:26.592Z,73.60
2022-10-07T00:57:53.525Z,73.80
2022-10-07T01:01:19.994Z,73.80
2022-10-07T01:04:46.153Z,73.90
2022-10-07T01:08:10.477Z,73.80
2022-10-07T01:11:56.766Z,73.90
2022-10-07T01:15:35.274Z,73.60
2022-10-07T01:19:14.471Z,73.70
2022-10-07T01:22:53.719Z,74.60
2022-10-07T01:26:49.661Z,73.70
2022-10-07T01:30:15.038Z,73.30
2022-10-07T01:33:43.288Z,74.00
2022-10-07T01:37:11.730Z,73.90
2022-10-07T01:40:41.545Z,73.90
2022-10-07T01:44:09.932Z,73.90
2022-10-07T01:47:33.481Z,73.80
2022-10-07T01:50:57.459Z,73.80
2022-10-07T01:54:40.248Z,73.80
2022-10-07T01:58:22.047Z,73.60
2022-10-07T02:01:57.095Z,73.60
2022-10-07T02:05:34.164Z,73.60
2022-10-07T02:09:04.201Z,73.50
2022-10-07T02:12:39.178Z,73.70
2022-10-07T02:16:17.797Z,73.70
2022-10-07T02:19:48.420Z,73.80
2022-10-07T02:23:15.206Z,73.80
2022-10-07T02:26:42.441Z,73.90
2022-10-07T02:30:12.466Z,73.90
2022-10-07T02:33:41.771Z,73.70
2022-10-07T02:37:15.563Z,73.90
2022-10-07T02:40:50.021Z,73.70
2022-10-07T02:44:26.733Z,73.70
2022-10-07T02:47:59.721Z,73.60
2022-10-07T02:51:28.395Z,73.80
2022-10-07T02:54:59.567Z,73.80
2022-10-07T02:58:26.951Z,73.70
2022-10-07T03:01:59.718Z,73.70
2022-10-07T03:05:25.867Z,73.90
2022-10-07T03:08:52.993Z,73.80
2022-10-07T03:12:17.854Z,73.80
2022-10-07T03:15:43.206Z,73.70
2022-10-07T03:19:12.418Z,73.90
2022-10-07T03:22:51.461Z,73.80
2022-10-07T03:26:19.145Z,73.70
2022-10-07T03:29:44.792Z,73.20
2022-10-07T03:33:08.583Z,73.80
2022-10-07T03:36:32.269Z,73.90
2022-10-07T03:39:56.196Z,74.50
2022-10-07T03:43:19.721Z,73.80
2022-10-07T03:46:44.648Z,73.90
2022-10-07T03:50:09.608Z,73.90
2022-10-07T03:53:33.230Z,73.90
2022-10-07T03:56:58.613Z,74.60
2022-10-07T04:00:26.286Z,73.90
2022-10-07T04:03:55.794Z,73.80
2022-10-07T04:07:22.111Z,73.70
2022-10-07T04:10:46.385Z,73.80
2022-10-07T04:14:09.944Z,73.90
2022-10-07T04:17:35.849Z,73.80
2022-10-07T04:21:02.267Z,73.80
2022-10-07T04:24:27.760Z,73.80
2022-10-07T04:27:53.818Z,73.20
2022-10-07T04:31:19.566Z,74.00
2022-10-07T04:34:50.660Z,74.00
2022-10-07T04:38:18.000Z,74.10
2022-10-07T04:41:43.932Z,74.10
2022-10-07T04:45:13.158Z,74.10
2022-10-07T04:48:37.296Z,74.10
2022-10-07T04:52:01.600Z,74.10
2022-10-07T04:55:37.262Z,74.00
2022-10-07T04:59:01.671Z,74.20
2022-10-07T05:02:26.243Z,74.20
2022-10-07T05:05:53.193Z,74.20
2022-10-07T05:09:16.866Z,74.20
2022-10-07T05:12:44.364Z,74.10
2022-10-07T05:16:11.923Z,74.20
2022-10-07T05:19:36.340Z,74.30
2022-10-07T05:22:59.932Z,74.10
2022-10-07T05:26:23.360Z,74.10
2022-10-07T05:29:53.787Z,74.20
2022-10-07T05:33:17.968Z,74.20
2022-10-07T05:36:41.748Z,74.40
2022-10-07T05:40:06.253Z,74.50
2022-10-07T05:43:32.815Z,74.60
2022-10-07T05:46:58.867Z,74.70
2022-10-07T05:50:26.054Z,74.60
2022-10-07T05:53:49.757Z,74.90
2022-10-07T05:57:13.356Z,75.60
2022-10-07T06:00:41.787Z,74.90
2022-10-07T06:04:07.899Z,75.00
2022-10-07T06:07:33.594Z,75.30
2022-10-07T06:11:20.487Z,75.40
2022-10-07T06:14:44.857Z,75.40
2022-10-07T06:18:09.255Z,75.60
2022-10-07T06:21:34.274Z,75.60
2022-10-07T06:25:03.697Z,75.80
2022-10-07T06:28:34.309Z,76.00
2022-10-07T06:31:58.582Z,76.20
2022-10-07T06:35:22.681Z,76.50
2022-10-07T06:38:52.609Z,76.70
2022-10-07T06:42:20.600Z,76.90
2022-10-07T06:46:18.168Z,77.00
2022-10-07T06:49:44.340Z,77.00
2022-10-07T06:53:07.882Z,77.20
2022-10-07T06:56:32.794Z,77.10
2022-10-07T06:59:56.817Z,77.10
2022-10-07T07:03:21.408Z,77.10
2022-10-07T07:06:45.164Z,77.20
2022-10-07T07:10:09.976Z,77.20
2022-10-07T07:13:42.536Z,77.00
2022-10-07T07:17:08.987Z,76.90
2022-10-07T07:20:37.250Z,77.00
2022-10-07T07:24:01.781Z,76.70
2022-10-07T07:27:26.425Z,76.90
2022-10-07T07:30:51.546Z,76.90
2022-10-07T07:34:15.618Z,76.50
2022-10-07T07:37:41.054Z,76.40
2022-10-07T07:41:06.897Z,76.30
2022-10-07T07:44:34.096Z,76.30
2022-10-07T07:48:00.639Z,76.40
2022-10-07T07:51:24.380Z,76.30
2022-10-07T07:54:49.755Z,76.80
2022-10-07T07:58:13.524Z,76.80
2022-10-07T08:01:39.002Z,77.10
2022-10-07T08:05:04.438Z,77.00
2022-10-07T08:08:28.301Z,77.40
2022-10-07T08:11:53.054Z,78.90
2022-10-07T08:15:16.842Z,82.70
2022-10-07T08:18:41.275Z,86.60
2022-10-07T08:22:08.445Z,89.10
2022-10-07T08:25:33.661Z,89.50
2022-10-07T08:29:01.461Z,90.10
2022-10-07T08:32:25.198Z,90.00
2022-10-07T08:35:51.733Z,85.40
2022-10-07T08:39:16.699Z,80.50
2022-10-07T08:42:43.744Z,78.30
2022-10-07T08:46:11.397Z,80.10
2022-10-07T08:49:50.268Z,81.50
2022-10-07T08:53:22.401Z,79.70
2022-10-07T08:56:50.601Z,79.20
2022-10-07T09:00:19.525Z,77.30
2022-10-07T09:03:56.509Z,77.90
2022-10-07T09:07:48.060Z,75.30
2022-10-07T09:11:25.681Z,76.40
2022-10-07T09:14:56.375Z,73.30
2022-10-07T09:18:43.209Z,73.10
2022-10-07T09:22:19.301Z,73.20
2022-10-07T09:25:44.350Z,72.90
2022-10-07T09:29:10.677Z,73.30
2022-10-07T09:32:41.461Z,71.90
2022-10-07T09:36:10.468Z,71.60
2022-10-07T09:39:33.952Z,71.40
2022-10-07T09:42:59.425Z,71.20
2022-10-07T09:46:42.941Z,68.90
2022-10-07T09:50:38.039Z,67.20
2022-10-07T09:54:04.596Z,65.10
2022-10-07T09:57:34.920Z,67.50
2022-10-07T10:01:00.700Z,66.00
2022-10-07T10:04:32.583Z,67.40
2022-10-07T10:08:06.111Z,66.40
2022-10-07T10:11:30.132Z,66.20
2022-10-07T10:14:58.988Z,66.10
2022-10-07T10:18:39.505Z,65.60
2022-10-07T10:22:03.436Z,63.50
2022-10-07T10:26:03.661Z,64.90
2022-10-07T10:29:50.418Z,63.10
2022-10-07T10:33:33.935Z,62.90
2022-10-07T10:37:13.757Z,59.60
2022-10-07T10:40:43.448Z,62.60
2022-10-07T10:44:42.606Z,62.40
2022-10-07T10:48:30.045Z,60.30
2022-10-07T10:52:21.384Z,60.70
2022-10-07T10:56:19.490Z,59.90
2022-10-07T11:00:04.729Z,59.60
2022-10-07T11:04:06.463Z,59.20
2022-10-07T11:07:36.639Z,59.10
2022-10-07T11:11:08.751Z,60.90
2022-10-07T11:14:39.159Z,59.80
2022-10-07T11:18:09.654Z,60.50
2022-10-07T11:21:39.832Z,59.60
2022-10-07T11:25:16.135Z,58.80
2022-10-07T11:28:45.568Z,57.80
2022-10-07T11:32:20.463Z,56.80
2022-10-07T11:35:52.156Z,57.20
2022-10-07T11:39:16.241Z,57.60
2022-10-07T11:42:45.262Z,58.60
2022-10-07T11:46:17.396Z,57.90
2022-10-07T11:49:49.376Z,57.50
2022-10-07T11:53:22.024Z,58.10
2022-10-07T11:56:51.257Z,56.40
2022-10-07T12:00:27.960Z,56.30
2022-10-07T12:04:15.337Z,55.70
2022-10-07T12:07:59.836Z,56.20
2022-10-07T12:11:48.724Z,54.70
2022-10-07T12:15:31.627Z,54.30
2022-10-07T12:19:23.074Z,55.50
2022-10-07T12:23:29.540Z,55.30
2022-10-07T12:27:10.104Z,56.60
2022-10-07T12:30:50.544Z,56.20
2022-10-07T12:34:30.253Z,56.50
2022-10-07T12:38:05.777Z,56.40
2022-10-07T12:41:31.453Z,56.80
2022-10-07T12:44:56.840Z,57.90
2022-10-07T12:48:25.374Z,57.70
2022-10-07T12:51:54.336Z,58.30
2022-10-07T12:55:29.493Z,57.60
2022-10-07T12:59:39.712Z,57.50
2022-10-07T13:03:43.139Z,57.70
2022-10-07T13:07:54.325Z,58.00
2022-10-07T13:12:11.176Z,58.00
2022-10-07T13:15:43.973Z,57.60
2022-10-07T13:19:25.092Z,58.50
2022-10-07T13:22:50.385Z,58.70
2022-10-07T13:26:14.697Z,59.00
2022-10-07T13:29:40.324Z,59.30
2022-10-07T13:33:17.002Z,59.30
2022-10-07T13:36:44.289Z,58.80
2022-10-07T13:40:25.860Z,59.30
2022-10-07T13:43:54.133Z,59.00
2022-10-07T13:47:23.588Z,59.70
2022-10-07T13:50:49.377Z,59.40
2022-10-07T13:54:20.644Z,59.90
2022-10-07T13:57:44.888Z,59.60
2022-10-07T14:01:09.213Z,60.10
2022-10-07T14:04:35.624Z,60.40
2022-10-07T14:08:12.494Z,60.20
2022-10-07T14:11:36.315Z,60.30
2022-10-07T14:15:05.373Z,60.50
2022-10-07T14:18:31.949Z,60.50
2022-10-07T14:21:57.184Z,60.70
2022-10-07T14:25:23.772Z,60.70
2022-10-07T14:28:47.397Z,60.80
2022-10-07T14:32:40.457Z,60.80
2022-10-07T14:36:12.899Z,60.10
2022-10-07T14:39:42.446Z,60.60
2022-10-07T14:43:06.037Z,60.70
2022-10-07T14:46:30.221Z,61.00
2022-10-07T14:49:55.871Z,61.10
2022-10-07T14:53:19.348Z,61.30
2022-10-07T14:56:44.160Z,61.30
2022-10-07T15:00:17.547Z,61.40
2022-10-07T15:03:41.049Z,61.10
2022-10-07T15:07:04.589Z,61.60
2022-10-07T15:10:28.491Z,61.80
2022-10-07T15:13:53.969Z,62.00
2022-10-07T15:17:18.588Z,61.80
2022-10-07T15:20:43.773Z,61.90
2022-10-07T15:24:07.656Z,62.00
2022-10-07T15:27:31.453Z,61.90
2022-10-07T15:31:05.332Z,62.10
2022-10-07T15:34:28.789Z,62.60
2022-10-07T15:37:53.062Z,62.20
2022-10-07T15:41:32.074Z,62.30
2022-10-07T15:44:55.817Z,62.00
2022-10-07T15:48:23.179Z,62.60
2022-10-07T15:51:47.280Z,62.60
2022-10-07T15:55:11.082Z,62.80
2022-10-07T15:58:34.762Z,62.90
2022-10-07T16:01:58.404Z,63.00
2022-10-07T16:05:24.334Z,63.10
2022-10-07T16:08:48.049Z,63.10
2022-10-07T16:12:11.838Z,63.20
2022-10-07T16:15:36.668Z,63.30
2022-10-07T16:19:01.830Z,63.40
2022-10-07T16:22:26.804Z,63.40
2022-10-07T16:25:50.323Z,63.40
2022-10-07T16:29:34.182Z,63.60
2022-10-07T16:32:58.050Z,63.70
2022-10-07T16:36:23.896Z,63.70
2022-10-07T16:39:48.745Z,63.80
2022-10-07T16:43:12.129Z,64.50
2022-10-07T16:46:37.002Z,63.90
2022-10-07T16:50:00.505Z,64.00
2022-10-07T16:53:23.978Z,64.30
2022-10-07T16:56:52.374Z,64.10
2022-10-07T17:00:16.551Z,64.20
2022-10-07T17:03:42.028Z,64.20
2022-10-07T17:07:05.952Z,64.20
2022-10-07T17:10:29.508Z,64.50
2022-10-07T17:13:54.519Z,64.70
2022-10-07T17:17:18.950Z,64.80
2022-10-07T17:20:49.221Z,65.10
2022-10-07T17:24:13.341Z,65.30
2022-10-07T17:27:37.174Z,65.30
2022-10-07T17:31:07.432Z,65.50
2022-10-07T17:34:34.204Z,65.50
2022-10-07T17:37:59.152Z,65.70
2022-10-07T17:41:25.162Z,65.80
2022-10-07T17:44:48.557Z,65.90
2022-10-07T17:48:13.367Z,66.00
2022-10-07T17:51:37.815Z,66.00
2022-10-07T17:55:01.233Z,66.10
2022-10-07T17:58:24.836Z,66.30
2022-10-07T18:01:48.255Z,66.20
2022-10-07T18:05:13.058Z,66.20
2022-10-07T18:08:40.780Z,66.20
2022-10-07T18:12:22.065Z,66.30
2022-10-07T18:15:45.632Z,66.40
2022-10-07T18:19:09.052Z,66.50
2022-10-07T18:22:34.446Z,66.40
2022-10-07T18:26:02.650Z,66.50
2022-10-07T18:29:26.483Z,66.50
2022-10-07T18:32:49.967Z,66.50
2022-10-07T18:36:16.739Z,66.40
2022-10-07T18:39:41.967Z,66.40
2022-10-07T18:43:05.471Z,66.50
2022-10-07T18:46:29.108Z,66.70
2022-10-07T18:49:52.804Z,67.30
2022-10-07T18:53:16.730Z,66.70
2022-10-07T18:56:41.876Z,66.80
2022-10-07T19:00:07.292Z,67.00
2022-10-07T19:03:33.376Z,67.20
2022-10-07T19:06:56.891Z,67.30
2022-10-07T19:10:20.398Z,67.40
2022-10-07T19:13:50.396Z,67.60
2022-10-07T19:17:13.795Z,67.80
2022-10-07T19:20:37.279Z,67.90
2022-10-07T19:24:01.564Z,67.90
2022-10-07T19:27:25.424Z,68.00
2022-10-07T19:30:50.473Z,68.10
2022-10-07T19:34:17.114Z,68.30
2022-10-07T19:37:42.312Z,68.50
2022-10-07T19:41:10.300Z,68.70
2022-10-07T19:44:34.226Z,68.80
2022-10-07T19:47:59.238Z,68.80
2022-10-07T19:51:23.356Z,68.80
2022-10-07T19:54:46.722Z,68.90
2022-10-07T19:58:10.173Z,69.10
2022-10-07T20:01:36.837Z,69.10
2022-10-07T20:05:02.046Z,69.10
2022-10-07T20:08:25.567Z,69.20
2022-10-07T20:11:49.424Z,69.10
2022-10-07T20:15:13.362Z,69.10
2022-10-07T20:18:38.527Z,69.30
2022-10-07T20:22:03.659Z,69.30
2022-10-07T20:25:27.284Z,70.20
2022-10-07T20:28:55.281Z,69.40
2022-10-07T20:32:18.680Z,69.40
2022-10-07T20:35:42.129Z,69.30
2022-10-07T20:39:27.005Z,69.40
2022-10-07T20:42:51.039Z,69.50
2022-10-07T20:46:14.717Z,69.50
2022-10-07T20:49:41.607Z,69.40
2022-10-07T20:53:05.029Z,69.50
2022-10-07T20:56:31.335Z,69.60
2022-10-07T20:59:55.678Z,69.50
2022-10-07T21:03:19.038Z,69.60
2022-10-07T21:06:42.749Z,69.60
2022-10-07T21:10:06.944Z,69.70
2022-10-07T21:13:33.260Z,69.60
2022-10-07T21:16:57.892Z,69.70
2022-10-07T21:20:21.337Z,69.90
2022-10-07T21:23:45.022Z,69.90
2022-10-07T21:27:09.504Z,69.90
2022-10-07T21:30:34.325Z,70.00
2022-10-07T21:33:59.373Z,70.20
2022-10-07T21:37:22.756Z,70.20
2022-10-07T21:40:46.327Z,70.30
2022-10-07T21:44:13.678Z,70.30
2022-10-07T21:47:38.417Z,70.50
2022-10-07T21:51:09.364Z,70.40
2022-10-07T21:54:33.147Z,70.30
2022-10-07T21:57:56.719Z,70.40
2022-10-07T22:01:23.167Z,70.50
2022-10-07T22:04:47.914Z,70.50
2022-10-07T22:08:34.176Z,70.60
2022-10-07T22:11:58.612Z,70.60
2022-10-07T22:15:23.662Z,70.80
2022-10-07T22:18:50.282Z,70.90
2022-10-07T22:22:15.031Z,71.20
2022-10-07T22:25:38.398Z,71.50
2022-10-07T22:29:02.263Z,71.70
2022-10-07T22:32:25.727Z,71.90
2022-10-07T22:35:49.127Z,72.00
2022-10-07T22:39:13.952Z,72.20
2022-10-07T22:42:37.726Z,72.10
2022-10-07T22:46:01.393Z,72.00
2022-10-07T22:49:29.507Z,72.00
2022-10-07T22:52:54.193Z,71.90
2022-10-07T22:56:20.826Z,71.80
2022-10-07T22:59:44.205Z,71.80
2022-10-07T23:03:10.758Z,71.70
2022-10-07T23:06:36.981Z,71.90
2022-10-07T23:10:00.395Z,72.00
2022-10-07T23:13:26.657Z,71.90
2022-10-07T23:16:50.030Z,72.00
2022-10-07T23:20:13.573Z,72.00
2022-10-07T23:23:38.774Z,72.00
2022-10-07T23:27:02.281Z,72.00
2022-10-07T23:30:26.982Z,72.00
2022-10-07T23:33:52.629Z,72.10
2022-10-07T23:37:16.090Z,72.10
2022-10-07T23:40:40.650Z,72.10
2022-10-07T23:44:04.714Z,72.10
2022-10-07T23:47:29.474Z,72.20
2022-10-07T23:50:55.643Z,72.40
2022-10-07T23:54:19.109Z,72.50
2022-10-07T23:57:42.549Z,72.70
